createdAt,value
2023-04-09T00:01:28.471Z,8.57
2023-04-09T00:03:54.895Z,8.50
2023-04-09T00:06:21.277Z,9.02
2023-04-09T00:08:47.586Z,9.20
2023-04-09T00:11:13.950Z,10.07
2023-04-09T00:13:40.374Z,10.05
2023-04-09T00:16:07.397Z,9.75
2023-04-09T00:18:33.857Z,11.07
2023-04-09T00:21:00.625Z,10.45
2023-04-09T00:23:26.982Z,10.43
2023-04-09T00:25:53.415Z,9.48
2023-04-09T00:28:20.111Z,9.90
2023-04-09T00:30:46.447Z,9.93
2023-04-09T00:33:12.779Z,9.32
2023-04-09T00:35:39.204Z,9.88
2023-04-09T00:38:05.592Z,9.65
2023-04-09T00:40:32.017Z,10.38
2023-04-09T00:42:58.350Z,9.70
2023-04-09T00:45:24.781Z,9.20
2023-04-09T00:47:51.567Z,8.70
2023-04-09T00:50:18.010Z,9.00
2023-04-09T00:52:44.420Z,8.95
2023-04-09T00:55:10.862Z,9.82
2023-04-09T00:57:37.547Z,9.48
2023-04-09T01:00:04.678Z,10.82
2023-04-09T01:02:31.357Z,10.25
2023-04-09T01:04:57.998Z,10.82
2023-04-09T01:07:43.192Z,9.70
2023-04-09T01:10:21.790Z,11.75
2023-04-09T01:12:54.622Z,10.80
2023-04-09T01:15:33.769Z,12.27
2023-04-09T01:18:05.256Z,11.00
2023-04-09T01:20:31.647Z,10.60
2023-04-09T01:23:02.244Z,10.95
2023-04-09T01:25:47.128Z,10.85
2023-04-09T01:28:18.248Z,10.00
2023-04-09T01:30:47.430Z,10.23
2023-04-09T01:33:14.625Z,9.50
2023-04-09T01:35:44.846Z,10.53
2023-04-09T01:38:12.561Z,10.80
2023-04-09T01:40:39.122Z,13.98
2023-04-09T01:43:06.454Z,13.80
2023-04-09T01:45:32.913Z,13.95
2023-04-09T01:47:59.722Z,15.20
2023-04-09T01:50:26.296Z,15.27
2023-04-09T01:52:52.809Z,13.68
2023-04-09T01:55:19.192Z,12.02
2023-04-09T01:57:45.649Z,13.20
2023-04-09T02:00:12.314Z,13.27
2023-04-09T02:03:17.437Z,13.80
2023-04-09T02:05:51.431Z,13.65
2023-04-09T02:08:20.616Z,13.85
2023-04-09T02:10:53.218Z,13.93
2023-04-09T02:13:20.552Z,14.82
2023-04-09T02:15:47.516Z,15.50
2023-04-09T02:18:30.133Z,15.73
2023-04-09T02:20:57.179Z,16.45
2023-04-09T02:23:23.853Z,16.70
2023-04-09T02:25:50.975Z,16.50
2023-04-09T02:28:17.322Z,15.03
2023-04-09T02:30:43.689Z,13.98
2023-04-09T02:33:10.298Z,15.35
2023-04-09T02:35:36.915Z,14.80
2023-04-09T02:38:03.344Z,16.27
2023-04-09T02:40:29.725Z,16.35
2023-04-09T02:42:56.182Z,16.70
2023-04-09T02:45:22.528Z,16.27
2023-04-09T02:47:48.981Z,16.88
2023-04-09T02:50:15.366Z,15.77
2023-04-09T02:52:41.695Z,15.90
2023-04-09T02:55:08.315Z,15.70
2023-04-09T02:57:34.716Z,16.38
2023-04-09T03:00:01.040Z,16.00
2023-04-09T03:02:27.576Z,15.80
2023-04-09T03:04:54.082Z,16.10
2023-04-09T03:07:20.433Z,16.30
2023-04-09T03:09:46.761Z,15.35
2023-04-09T03:12:13.108Z,16.33
2023-04-09T03:14:39.443Z,16.33
2023-04-09T03:17:05.796Z,16.25
2023-04-09T03:19:32.118Z,15.88
2023-04-09T03:21:58.438Z,17.15
2023-04-09T03:24:24.809Z,15.73
2023-04-09T03:26:51.246Z,15.43
2023-04-09T03:29:17.583Z,16.80
2023-04-09T03:31:44.136Z,15.05
2023-04-09T03:34:10.718Z,15.60
2023-04-09T03:36:37.095Z,16.70
2023-04-09T03:39:03.507Z,17.33
2023-04-09T03:41:29.901Z,16.65
2023-04-09T03:43:56.459Z,16.20
2023-04-09T03:46:22.942Z,16.50
2023-04-09T03:48:49.306Z,15.98
2023-04-09T03:51:15.651Z,16.88
2023-04-09T03:53:42.367Z,17.98
2023-04-09T03:56:09.161Z,16.73
2023-04-09T03:58:35.864Z,16.88
2023-04-09T04:01:02.334Z,16.52
2023-04-09T04:03:29.259Z,16.67
2023-04-09T04:06:00.589Z,17.50
2023-04-09T04:08:27.019Z,17.58
2023-04-09T04:10:53.332Z,16.60
2023-04-09T04:13:19.686Z,17.27
2023-04-09T04:15:46.022Z,17.45
2023-04-09T04:18:12.349Z,18.15
2023-04-09T04:20:39.008Z,18.15
2023-04-09T04:23:05.445Z,17.48
2023-04-09T04:25:31.853Z,16.15
2023-04-09T04:27:58.159Z,16.50
2023-04-09T04:30:24.536Z,17.10
2023-04-09T04:32:50.966Z,16.80
2023-04-09T04:35:17.382Z,16.85
2023-04-09T04:37:43.788Z,17.05
2023-04-09T04:40:10.206Z,16.05
2023-04-09T04:42:36.544Z,17.13
2023-04-09T04:45:02.981Z,16.52
2023-04-09T04:47:29.325Z,16.60
2023-04-09T04:49:55.894Z,15.65
2023-04-09T04:52:22.332Z,15.77
2023-04-09T04:54:48.647Z,16.83
2023-04-09T04:57:15.390Z,16.95
2023-04-09T04:59:41.822Z,17.45
2023-04-09T05:02:08.418Z,16.52
2023-04-09T05:04:34.877Z,17.13
2023-04-09T05:07:01.423Z,18.25
2023-04-09T05:09:27.768Z,16.85
2023-04-09T05:11:54.126Z,17.73
2023-04-09T05:14:21.560Z,17.40
2023-04-09T05:16:47.951Z,17.40
2023-04-09T05:19:14.336Z,17.00
2023-04-09T05:21:40.736Z,18.00
2023-04-09T05:24:07.694Z,17.73
2023-04-09T05:26:34.034Z,18.35
2023-04-09T05:29:00.380Z,18.00
2023-04-09T05:31:26.772Z,19.00
2023-04-09T05:33:53.109Z,19.77
2023-04-09T05:36:19.573Z,18.08
2023-04-09T05:38:46.347Z,18.63
2023-04-09T05:41:12.908Z,17.70
2023-04-09T05:43:39.248Z,19.48
2023-04-09T05:46:05.775Z,18.40
2023-04-09T05:48:34.807Z,17.90
2023-04-09T05:51:01.247Z,18.00
2023-04-09T05:53:27.603Z,18.50
2023-04-09T05:55:53.961Z,17.48
2023-04-09T05:58:20.505Z,16.25
2023-04-09T06:00:46.986Z,17.40
2023-04-09T06:03:13.507Z,18.20
2023-04-09T06:05:39.949Z,18.30
2023-04-09T06:08:06.463Z,17.30
2023-04-09T06:10:32.917Z,17.08
2023-04-09T06:12:59.278Z,16.35
2023-04-09T06:15:25.850Z,16.05
2023-04-09T06:17:52.167Z,17.75
2023-04-09T06:20:18.542Z,17.08
2023-04-09T06:22:44.861Z,16.58
2023-04-09T06:25:11.234Z,16.85
2023-04-09T06:27:37.632Z,17.45
2023-04-09T06:30:04.143Z,18.35
2023-04-09T06:32:33.496Z,18.08
2023-04-09T06:35:01.891Z,18.13
2023-04-09T06:37:28.220Z,17.95
2023-04-09T06:40:00.915Z,19.52
2023-04-09T06:42:27.846Z,19.30
2023-04-09T06:44:54.240Z,20.50
2023-04-09T06:47:20.712Z,21.45
2023-04-09T06:49:47.099Z,21.35
2023-04-09T06:52:13.415Z,22.38
2023-04-09T06:54:39.729Z,24.70
2023-04-09T06:57:07.012Z,24.42
2023-04-09T06:59:33.900Z,25.77
2023-04-09T07:02:00.920Z,25.77
2023-04-09T07:04:27.534Z,26.52
2023-04-09T07:06:54.851Z,27.27
2023-04-09T07:09:21.324Z,26.45
2023-04-09T07:11:47.748Z,26.42
2023-04-09T07:14:14.128Z,27.63
2023-04-09T07:16:40.588Z,27.25
2023-04-09T07:19:07.531Z,25.83
2023-04-09T07:21:33.930Z,27.88
2023-04-09T07:24:00.696Z,27.58
2023-04-09T07:26:27.039Z,26.55
2023-04-09T07:28:53.449Z,28.50
2023-04-09T07:31:19.805Z,28.23
2023-04-09T07:33:46.155Z,27.83
2023-04-09T07:36:12.558Z,26.02
2023-04-09T07:38:38.961Z,27.30
2023-04-09T07:41:05.382Z,26.48
2023-04-09T07:43:32.316Z,26.95
2023-04-09T07:45:58.639Z,25.60
2023-04-09T07:48:24.987Z,26.30
2023-04-09T07:50:51.571Z,26.70
2023-04-09T07:53:17.912Z,26.88
2023-04-09T07:55:44.255Z,25.33
2023-04-09T07:58:10.715Z,25.88
2023-04-09T08:00:37.137Z,25.45
2023-04-09T08:03:07.078Z,24.92
2023-04-09T08:05:33.549Z,24.45
2023-04-09T08:07:59.874Z,22.45
2023-04-09T08:10:26.290Z,22.23
2023-04-09T08:12:52.603Z,21.70
2023-04-09T08:15:18.996Z,21.88
2023-04-09T08:17:45.621Z,22.25
2023-04-09T08:20:12.699Z,21.65
2023-04-09T08:22:41.047Z,21.73
2023-04-09T08:25:07.549Z,22.20
2023-04-09T08:27:34.716Z,21.88
2023-04-09T08:30:02.388Z,22.73
2023-04-09T08:34:55.148Z,20.85
2023-04-09T08:37:21.461Z,20.80
2023-04-09T08:39:47.793Z,21.00
2023-04-09T08:42:14.517Z,20.67
2023-04-09T08:44:41.112Z,21.07
2023-04-09T08:47:10.118Z,19.55
2023-04-09T08:49:36.568Z,20.10
2023-04-09T08:52:02.979Z,19.45
2023-04-09T08:54:29.359Z,19.30
2023-04-09T08:56:56.322Z,18.40
2023-04-09T08:59:22.667Z,19.65
2023-04-09T09:01:54.230Z,19.20
2023-04-09T09:04:20.890Z,18.50
2023-04-09T09:06:47.256Z,18.48
2023-04-09T09:09:17.455Z,18.52
2023-04-09T09:11:44.925Z,19.10
2023-04-09T09:16:45.066Z,17.00
2023-04-09T09:19:26.734Z,16.98
2023-04-09T09:22:01.723Z,17.42
2023-04-09T09:24:28.169Z,16.80
2023-04-09T09:26:54.904Z,16.67
2023-04-09T09:29:21.302Z,16.40
2023-04-09T09:31:49.468Z,15.73
2023-04-09T09:34:17.263Z,15.55
2023-04-09T09:36:43.950Z,15.77
2023-04-09T09:39:10.674Z,14.80
2023-04-09T09:41:37.243Z,14.57
2023-04-09T09:44:04.583Z,15.20
2023-04-09T09:46:34.057Z,14.15
2023-04-09T09:49:00.467Z,15.38
2023-04-09T09:51:29.800Z,15.73
2023-04-09T09:53:57.175Z,15.43
2023-04-09T09:56:25.173Z,14.95
2023-04-09T09:58:54.481Z,14.75
2023-04-09T10:01:21.791Z,15.40
2023-04-09T10:03:50.012Z,14.68
2023-04-09T10:08:42.805Z,14.07
2023-04-09T10:11:09.185Z,13.05
2023-04-09T10:13:37.468Z,14.45
2023-04-09T10:16:04.190Z,13.68
2023-04-09T10:18:33.490Z,12.98
2023-04-09T10:20:59.867Z,11.93
2023-04-09T10:23:32.308Z,12.00
2023-04-09T10:25:58.691Z,12.45
2023-04-09T10:28:25.083Z,11.55
2023-04-09T10:30:53.468Z,11.48
2023-04-09T10:33:26.524Z,11.65
2023-04-09T10:35:54.458Z,10.00
2023-04-09T10:38:33.024Z,10.55
2023-04-09T10:40:59.383Z,9.80
2023-04-09T10:43:25.749Z,9.68
2023-04-09T10:45:54.230Z,9.13
2023-04-09T10:48:21.723Z,10.07
2023-04-09T10:50:50.339Z,8.57
2023-04-09T10:53:23.970Z,9.07
2023-04-09T10:55:51.057Z,8.77
2023-04-09T10:58:17.538Z,9.07
2023-04-09T11:00:46.058Z,8.60
2023-04-09T11:03:41.646Z,8.50
2023-04-09T11:06:11.797Z,8.25
2023-04-09T11:08:38.665Z,7.97
2023-04-09T11:11:05.927Z,9.38
2023-04-09T11:13:32.629Z,7.47
2023-04-09T11:18:27.315Z,7.60
2023-04-09T11:20:57.236Z,7.65
2023-04-09T11:23:23.976Z,8.23
2023-04-09T11:25:51.038Z,8.30
2023-04-09T11:28:17.720Z,7.90
2023-04-09T11:38:10.334Z,6.53
2023-04-09T11:40:37.245Z,8.70
2023-04-09T11:43:03.621Z,7.93
2023-04-09T11:45:31.095Z,7.40
2023-04-09T11:47:57.628Z,7.88
2023-04-09T11:50:24.238Z,8.52
2023-04-09T11:52:50.697Z,7.95
2023-04-09T11:55:24.143Z,8.38
2023-04-09T11:57:51.796Z,7.53
2023-04-09T12:00:18.187Z,8.13
2023-04-09T12:02:46.654Z,7.88
2023-04-09T12:05:20.763Z,7.78
2023-04-09T12:07:55.660Z,7.72
2023-04-09T12:10:26.338Z,7.40
2023-04-09T12:12:52.734Z,7.57
2023-04-09T12:15:19.606Z,7.93
2023-04-09T12:20:12.326Z,8.80
2023-04-09T12:22:40.848Z,8.10
2023-04-09T12:25:08.360Z,8.20
2023-04-09T12:27:34.712Z,7.55
2023-04-09T12:30:01.068Z,6.90
2023-04-09T12:32:28.199Z,4.80
2023-04-09T12:34:54.604Z,4.60
2023-04-09T12:37:21.001Z,4.88
2023-04-09T12:39:48.049Z,5.00
2023-04-09T12:42:14.435Z,4.70
2023-04-09T12:44:40.824Z,4.20
2023-04-09T12:47:07.913Z,4.15
2023-04-09T12:49:34.481Z,3.85
2023-04-09T12:52:00.881Z,4.00
2023-04-09T12:54:27.199Z,3.50
2023-04-09T12:56:53.618Z,3.65
2023-04-09T12:59:19.972Z,3.85
2023-04-09T13:01:46.458Z,3.33
2023-04-09T13:04:12.974Z,3.15
2023-04-09T13:06:39.375Z,3.75
2023-04-09T13:09:05.730Z,3.95
2023-04-09T13:11:32.092Z,3.38
2023-04-09T13:13:58.424Z,3.20
2023-04-09T13:16:24.787Z,3.60
2023-04-09T13:18:52.090Z,3.90
2023-04-09T13:21:18.907Z,4.25
2023-04-09T13:23:45.334Z,4.15
2023-04-09T13:26:11.674Z,3.50
2023-04-09T13:28:38.075Z,3.60
2023-04-09T13:31:05.392Z,3.50
2023-04-09T13:35:58.322Z,3.47
2023-04-09T13:38:24.703Z,3.80
2023-04-09T13:40:51.085Z,3.63
2023-04-09T13:43:17.469Z,3.70
2023-04-09T13:45:43.792Z,3.30
2023-04-09T13:48:10.409Z,3.28
2023-04-09T13:50:36.809Z,3.42
2023-04-09T13:53:05.263Z,3.25
2023-04-09T13:55:31.703Z,3.60
2023-04-09T13:57:58.025Z,3.40
2023-04-09T14:00:24.351Z,3.70
2023-04-09T14:02:51.085Z,3.95
2023-04-09T14:05:17.660Z,3.83
2023-04-09T14:07:44.025Z,3.43
2023-04-09T14:10:10.675Z,4.00
2023-04-09T14:12:36.993Z,3.88
2023-04-09T14:15:03.600Z,4.45
2023-04-09T14:17:30.254Z,3.83
2023-04-09T14:19:58.908Z,4.15
2023-04-09T14:22:26.317Z,4.00
2023-04-09T14:27:18.938Z,3.78
2023-04-09T14:29:45.407Z,4.13
2023-04-09T14:32:11.813Z,4.50
2023-04-09T14:34:38.217Z,4.85
2023-04-09T14:37:04.548Z,4.05
2023-04-09T14:39:31.043Z,4.10
2023-04-09T14:41:57.730Z,4.07
2023-04-09T14:44:25.524Z,3.80
2023-04-09T14:46:55.165Z,4.28
2023-04-09T14:49:21.652Z,4.30
2023-04-09T14:51:47.972Z,4.32
2023-04-09T14:54:14.328Z,3.70
2023-04-09T14:56:40.792Z,4.18
2023-04-09T14:59:07.102Z,4.50
2023-04-09T15:01:33.536Z,4.00
2023-04-09T15:04:00.504Z,3.90
2023-04-09T15:06:27.935Z,4.30
2023-04-09T15:08:54.606Z,3.85
2023-04-09T15:11:22.861Z,4.20
2023-04-09T15:13:49.283Z,4.00
2023-04-09T15:16:23.132Z,3.80
2023-04-09T15:18:51.985Z,3.97
2023-04-09T15:21:18.888Z,4.00
2023-04-09T15:23:45.612Z,3.97
2023-04-09T15:26:11.948Z,4.00
2023-04-09T15:28:38.263Z,4.05
2023-04-09T15:31:04.746Z,4.38
2023-04-09T15:33:32.416Z,4.35
2023-04-09T15:35:59.060Z,4.50
2023-04-09T15:38:25.520Z,4.23
2023-04-09T15:40:52.350Z,4.47
2023-04-09T15:43:18.694Z,4.28
2023-04-09T15:45:45.207Z,4.30
2023-04-09T15:48:11.653Z,4.50
2023-04-09T15:50:38.419Z,4.38
2023-04-09T15:53:04.774Z,4.87
2023-04-09T15:55:31.851Z,4.57
2023-04-09T15:57:58.169Z,5.30
2023-04-09T16:00:24.575Z,5.43
2023-04-09T16:02:51.023Z,4.80
2023-04-09T16:05:17.343Z,5.10
2023-04-09T16:07:43.693Z,5.22
2023-04-09T16:10:10.368Z,6.10
2023-04-09T16:12:36.695Z,5.63
2023-04-09T16:15:03.155Z,5.78
2023-04-09T16:17:30.576Z,5.38
2023-04-09T16:22:23.309Z,5.40
2023-04-09T16:24:49.688Z,5.55
2023-04-09T16:27:16.712Z,5.63
2023-04-09T16:29:43.271Z,6.18
2023-04-09T16:32:09.664Z,6.22
2023-04-09T16:34:36.099Z,6.10
2023-04-09T16:37:02.444Z,6.75
2023-04-09T16:39:29.523Z,7.30
2023-04-09T16:41:58.237Z,6.60
2023-04-09T16:44:25.138Z,7.13
2023-04-09T16:46:51.882Z,6.97
2023-04-09T16:49:18.196Z,7.33
2023-04-09T16:51:46.048Z,7.65
2023-04-09T16:54:12.883Z,7.30
2023-04-09T16:56:39.231Z,7.63
2023-04-09T16:59:05.629Z,7.63
2023-04-09T17:01:32.421Z,7.97
2023-04-09T17:04:00.672Z,7.50
2023-04-09T17:06:27.441Z,7.47
2023-04-09T17:08:54.154Z,7.40
2023-04-09T17:11:21.400Z,7.77
2023-04-09T17:13:47.773Z,7.13
2023-04-09T17:16:14.318Z,6.88
2023-04-09T17:18:42.177Z,6.68
2023-04-09T17:21:08.599Z,6.72
2023-04-09T17:23:34.919Z,6.80
2023-04-09T17:26:01.638Z,6.43
2023-04-09T17:28:28.019Z,6.90
2023-04-09T17:30:54.410Z,6.47
2023-04-09T17:33:20.799Z,6.95
2023-04-09T17:35:47.194Z,6.97
2023-04-09T17:38:20.377Z,7.28
2023-04-09T17:40:47.728Z,7.38
2023-04-09T17:43:14.265Z,7.22
2023-04-09T17:45:41.153Z,7.20
2023-04-09T17:48:07.536Z,7.07
2023-04-09T17:50:36.563Z,7.43
2023-04-09T17:53:02.889Z,7.05
2023-04-09T17:55:30.467Z,7.70
2023-04-09T17:57:56.779Z,7.63
2023-04-09T18:00:23.229Z,7.97
2023-04-09T18:02:51.928Z,7.50
2023-04-09T18:05:18.600Z,8.55
2023-04-09T18:07:45.007Z,8.82
2023-04-09T18:10:11.426Z,8.55
2023-04-09T18:12:37.740Z,9.23
2023-04-09T18:15:04.306Z,8.90
2023-04-09T18:17:30.708Z,9.10
2023-04-09T18:19:58.356Z,9.00
2023-04-09T18:22:25.372Z,10.57
2023-04-09T18:24:52.694Z,9.97
2023-04-09T18:27:19.116Z,10.13
2023-04-09T18:29:45.905Z,10.57
2023-04-09T18:32:12.528Z,10.00
2023-04-09T18:34:38.901Z,11.25
2023-04-09T18:37:05.228Z,11.25
2023-04-09T18:39:31.728Z,11.18
2023-04-09T18:41:58.398Z,12.30
2023-04-09T18:44:24.722Z,12.30
2023-04-09T18:46:51.312Z,11.23
2023-04-09T18:49:18.344Z,11.60
2023-04-09T18:51:44.687Z,11.75
2023-04-09T18:54:11.052Z,12.75
2023-04-09T18:56:37.598Z,12.50
2023-04-09T18:59:03.902Z,11.70
2023-04-09T19:01:30.385Z,12.32
2023-04-09T19:03:56.965Z,11.40
2023-04-09T19:06:25.461Z,11.50
2023-04-09T19:08:57.452Z,11.32
2023-04-09T19:11:24.343Z,10.57
2023-04-09T19:13:50.670Z,11.57
2023-04-09T19:16:17.537Z,13.02
2023-04-09T19:18:44.620Z,12.00
2023-04-09T19:21:10.960Z,12.50
2023-04-09T19:23:37.378Z,12.73
2023-04-09T19:26:03.899Z,12.82
2023-04-09T19:28:30.235Z,12.77
2023-04-09T19:30:58.232Z,12.98
2023-04-09T19:33:25.358Z,12.75
2023-04-09T19:35:52.407Z,13.77
2023-04-09T19:38:19.076Z,13.43
2023-04-09T19:40:45.683Z,13.75
2023-04-09T19:43:12.160Z,14.10
2023-04-09T19:45:38.917Z,13.50
2023-04-09T19:48:05.968Z,14.77
2023-04-09T19:50:37.733Z,14.35
2023-04-09T19:53:05.864Z,15.20
2023-04-09T19:55:32.631Z,15.95
2023-04-09T19:57:58.956Z,15.00
2023-04-09T20:00:25.560Z,14.93
2023-04-09T20:02:52.392Z,16.00
2023-04-09T20:05:21.009Z,17.60
2023-04-09T20:07:47.909Z,18.73
2023-04-09T20:10:14.398Z,19.02
2023-04-09T20:12:40.697Z,19.75
2023-04-09T20:15:09.746Z,20.23
2023-04-09T20:17:37.117Z,21.33
2023-04-09T20:20:04.762Z,20.85
2023-04-09T20:22:31.135Z,22.23
2023-04-09T20:24:57.962Z,22.85
2023-04-09T20:27:24.555Z,23.23
2023-04-09T20:29:52.914Z,22.27
2023-04-09T20:32:19.848Z,21.83
2023-04-09T20:34:46.405Z,22.52
2023-04-09T20:37:12.742Z,22.60
2023-04-09T20:39:39.324Z,22.05
2023-04-09T20:42:05.678Z,22.08
2023-04-09T20:44:32.044Z,23.20
2023-04-09T20:46:58.461Z,23.15
2023-04-09T20:49:24.855Z,21.83
2023-04-09T20:51:51.928Z,21.70
2023-04-09T20:54:19.873Z,21.38
2023-04-09T20:56:46.227Z,19.63
2023-04-09T20:59:12.778Z,20.55
2023-04-09T21:01:39.177Z,20.20
2023-04-09T21:04:05.613Z,21.10
2023-04-09T21:06:33.776Z,20.40
2023-04-09T21:09:00.325Z,20.92
2023-04-09T21:11:26.651Z,21.38
2023-04-09T21:13:54.980Z,21.25
2023-04-09T21:16:22.331Z,21.70
2023-04-09T21:18:49.012Z,22.92
2023-04-09T21:21:15.568Z,22.88
2023-04-09T21:23:41.902Z,22.67
2023-04-09T21:26:08.964Z,22.70
2023-04-09T21:28:35.365Z,22.58
2023-04-09T21:31:01.877Z,22.95
2023-04-09T21:33:29.868Z,22.58
2023-04-09T21:35:57.051Z,23.95
2023-04-09T21:38:23.458Z,24.03
2023-04-09T21:40:49.886Z,25.27
2023-04-09T21:43:16.637Z,25.45
2023-04-09T21:45:43.000Z,25.95
2023-04-09T21:48:09.458Z,26.25
2023-04-09T21:50:36.028Z,26.55
2023-04-09T21:53:03.250Z,27.40
2023-04-09T21:55:29.686Z,27.38
2023-04-09T21:57:56.190Z,26.50
2023-04-09T22:00:22.628Z,28.75
2023-04-09T22:02:49.072Z,29.35
2023-04-09T22:05:15.650Z,29.73
2023-04-09T22:07:42.467Z,32.53
2023-04-09T22:10:09.108Z,35.45
2023-04-09T22:12:37.116Z,35.85
2023-04-09T22:15:04.554Z,34.75
2023-04-09T22:17:31.158Z,35.17
2023-04-09T22:19:57.603Z,33.03
2023-04-09T22:22:23.925Z,36.40
2023-04-09T22:24:50.637Z,34.65
2023-04-09T22:27:17.222Z,38.03
2023-04-09T22:29:43.556Z,39.63
2023-04-09T22:32:09.867Z,47.95
2023-04-09T22:34:36.325Z,42.47
2023-04-09T22:37:02.665Z,44.10
2023-04-09T22:39:29.239Z,44.88
2023-04-09T22:41:56.190Z,40.03
2023-04-09T22:44:22.639Z,48.13
2023-04-09T22:46:49.078Z,53.65
2023-04-09T22:49:15.839Z,45.42
2023-04-09T22:51:42.672Z,42.13
2023-04-09T22:54:09.218Z,47.03
2023-04-09T22:56:36.678Z,62.38
2023-04-09T22:59:03.303Z,51.38
2023-04-09T23:01:29.692Z,55.08
2023-04-09T23:03:56.266Z,52.72
2023-04-09T23:06:22.988Z,58.20
2023-04-09T23:08:49.422Z,58.08
2023-04-09T23:11:15.781Z,48.03
2023-04-09T23:13:42.114Z,50.67
2023-04-09T23:16:09.182Z,57.78
2023-04-09T23:18:35.852Z,44.83
2023-04-09T23:21:06.576Z,51.53
2023-04-09T23:23:33.510Z,41.85
2023-04-09T23:25:59.980Z,44.72
2023-04-09T23:28:26.354Z,47.28
2023-04-09T23:30:52.674Z,42.05
2023-04-09T23:33:19.534Z,39.53
2023-04-09T23:35:46.724Z,51.03
2023-04-09T23:38:13.223Z,43.08
2023-04-09T23:40:39.649Z,40.90
2023-04-09T23:43:06.005Z,36.42
2023-04-09T23:45:32.321Z,35.78
2023-04-09T23:47:58.865Z,28.55
2023-04-09T23:50:25.260Z,25.55
2023-04-09T23:52:51.648Z,25.27
2023-04-09T23:55:18.051Z,27.25
2023-04-09T23:57:44.900Z,26.58
